NCAR-RAP Real-Time Weather Data

Output produced by METARs form (26 May 2022  08:18 UTC)
found at http://weather.rap.ucar.edu/surface/
 
KTUL 260753Z 25012KT 10SM -RA FEW009 BKN015 OVC026 13/12 A2969 RMK AO2 SLP051 P0004 T01280117
KTUL 260749Z 24011KT 9SM -RA FEW009 BKN015 OVC032 13/12 A2969 RMK AO2 P0004
KTUL 260653Z 24010KT 10SM -RA FEW014 OVC021 13/12 A2971 RMK AO2 SLP056 P0001 T01280117
KTUL 260635Z 23010KT 10SM -RA SCT009 BKN017 OVC021 13/12 A2971 RMK AO2 P0001 T01280117
KTUL 260553Z 22009KT 10SM -RA BKN010 BKN017 OVC029 13/12 A2972 RMK AO2 RAE12B42 SLP061 P0000 60002 T01280117 10150 20128 401720128 58007
KTUL 260540Z 23007KT 10SM BKN010 BKN019 OVC029 13/12 A2972 RMK AO2 RAE12 P0000 T01280117
KTUL 260521Z 23010KT 10SM SCT010 BKN025 OVC045 13/12 A2973 RMK AO2 RAE12 P0000 T01330117
KTUL 260453Z 23009G17KT 10SM -RA BKN013 BKN020 OVC048 13/12 A2973 RMK AO2 RAB04 SLP065 P0002 T01330117
KTUL 260448Z 23009KT 10SM -RA BKN013 BKN020 OVC040 13/12 A2973 RMK AO2 RAB04 P0002
KTUL 260441Z 23007KT 10SM -RA SCT013 BKN021 OVC046 13/12 A2973 RMK AO2 RAB04 P0002 T01330117
KTUL 260407Z 24010KT 10SM -RA FEW013 SCT022 OVC038 13/12 A2974 RMK AO2 RAB04 P0000 T01330117
KTUL 260353Z 23009KT 10SM FEW012 BKN023 OVC038 14/12 A2974 RMK AO2 RAB16E42 SLP068 P0000 T01390117
KTUL 260341Z 24009KT 10SM -RA FEW013 BKN023 OVC032 13/12 A2974 RMK AO2 RAB16 P0000 T01330122
KTUL 260253Z 21008G17KT 10SM OVC012 14/13 A2973 RMK AO2 RAB21E42 SLP064 P0000 60000 T01390128 58001
KTUL 260235Z 20013KT 10SM -RA OVC014 14/12 A2972 RMK AO2 RAB21 P0000 T01390122
KTUL 260153Z 20010KT 10SM FEW013 BKN026 OVC070 14/12 A2973 RMK AO2 SLP064 T01390122
KTUL 260145Z 19010KT 10SM FEW013 SCT026 OVC070 14/12 A2973 RMK AO2 T01440122
KTUL 260101Z 21009G14KT 10SM OVC028 14/12 A2973 RMK AO2 T01440117
KTUL 260053Z 21008G16KT 10SM SCT025 OVC030 14/12 A2973 RMK AO2 SLP064 T01440117
KTUL 260015Z 21007KT 190V250 10SM SCT029 BKN035 OVC065 14/12 A2973 RMK AO2 T01440117
KTUL 252353Z 22007KT 10SM FEW018 OVC028 15/11 A2973 RMK AO2 SLP064 T01500111 10167 20144 50003
KTUL 252253Z 24011KT 10SM BKN020 OVC025 15/11 A2974 RMK AO2 SLP066 T01500111
KTUL 252153Z 24014G17KT 10SM BKN021 OVC032 16/11 A2973 RMK AO2 SLP064 T01560111
KTUL 252130Z 23013G23KT 10SM FEW021 OVC031 16/11 A2973 RMK AO2 T01560111
KTUL 252053Z 22009KT 10SM BKN019 OVC028 16/12 A2972 RMK AO2 SLP060 T01610122 53001
KTUL 251953Z 25010KT 10SM BKN018 OVC024 16/13 A2972 RMK AO2 SLP058 T01610128
KTUL 251919Z 25010KT 10SM BKN016 OVC020 16/13 A2971 RMK AO2 T01610128
KTUL 251853Z 26012KT 10SM BKN014 OVC025 16/13 A2971 RMK AO2 SLP057 T01610133
KTUL 251839Z 26011KT 10SM BKN013 OVC022 16/13 A2972 RMK AO2 T01610133
KTUL 251753Z 24010KT 10SM BKN009 OVC016 15/13 A2972 RMK AO2 RAE23 SLP059 P0000 60044 T01500128 10156 20133 51005
KTUL 251653Z 26008KT 10SM -RA BKN009 BKN055 OVC090 14/13 A2971 RMK AO2 SLP056 P0003 T01440133
KTUL 251553Z 26010KT 6SM -RA BR BKN007 OVC015 14/13 A2971 RMK AO2 SLP057 P0016 T01390133
KTUL 251538Z 24007KT 4SM RA BR BKN009 BKN014 OVC023 14/13 A2972 RMK AO2 P0014 T01390128
KTUL 251529Z 26008KT 4SM RA BR FEW007 BKN015 OVC060 13/13 A2972 RMK AO2 P0012 T01330128
KTUL 251522Z 26008KT 3SM RA BR BKN011 BKN025 OVC060 14/13 A2971 RMK AO2 P0010 T01390128
KTUL 251509Z 28007KT 2 1/2SM RA BR SCT009 BKN029 OVC060 13/13 A2971 RMK AO2 P0006 T01330133
KTUL 251453Z 29005KT 1 1/2SM R18L/6000VP6000FT +RA BR SCT007 BKN029 OVC045 13/13 A2970 RMK AO2 SLP054 P0016 60025 T01330128 53004
KTUL 251438Z 28006KT 1 3/4SM R18L/6000VP6000FT RA BR FEW004 BKN008 OVC014 13/13 A2970 RMK AO2 P0009 T01330128
KTUL 251404Z 30005KT 3SM R18L/6000VP6000FT -RA BR FEW004 BKN008 OVC014 14/13 A2969 RMK AO2 P0003 T01390133
KTUL 251359Z 29010KT 2 1/2SM R18L/6000VP6000FT RA BR SCT004 OVC014 14/13 A2969 RMK AO2 P0002 T01390133
KTUL 251353Z 30010KT 3SM -RA BR SCT005 BKN008 OVC014 14/13 A2969 RMK AO2 SLP049 P0008 T01390133
KTUL 251339Z 30006KT 2 1/2SM RA BR BKN005 BKN014 OVC060 14/14 A2969 RMK AO2 P0005 T01390139
KTUL 251300Z 30008KT 6SM -RA BR SCT007 BKN021 OVC050 14/13 A2968 RMK AO2 P0000 T01390133
KTUL 251253Z 30007KT 5SM -RA BR BKN021 OVC050 14/13 A2968 RMK AO2 SLP047 P0001 T01390133
KTUL 251153Z 31006KT 7SM -RA OVC020 14/13 A2969 RMK AO2 RAE1059B33 SLP049 P0000 60000 70125 T01440133 10172 20144 55004
KTUL 251053Z 31008KT 10SM -RA FEW008 OVC018 15/14 A2968 RMK AO2 RAB16 SLP046 P0000 T01500139
KTUL 250953Z 30005KT 10SM FEW009 OVC018 16/14 A2971 RMK AO2 SLP056 T01560139
KTUL 250853Z 33004KT 10SM FEW009 OVC018 16/14 A2970 RMK AO2 SLP053 T01610144 55015
KTUL 250753Z 29005KT 10SM FEW038 BKN120 17/16 A2970 RMK AO2 SLP052 T01670161
KTUL 250735Z 28003KT 10SM FEW010 BKN040 OVC120 17/16 A2971 RMK AO2 T01670161
KTUL 250653Z 23005KT 10SM BKN007 BKN016 OVC024 17/17 A2972 RMK AO2 SLP060 T01720167
KTUL 250553Z 19005KT 10SM BKN006 OVC110 17/17 A2975 RMK AO2 RAE27 SLP068 P0001 60003 T01720172 10194 20172 401940150 58004
KTUL 250546Z 18005KT 10SM BKN005 BKN120 17/17 A2975 RMK AO2 RAE27 P0001 T01720172
KTUL 250543Z 17003KT 10SM SCT005 BKN100 BKN120 17/17 A2975 RMK AO2 RAE27 P0001 T01720172
KTUL 250453Z VRB03KT 10SM -RA SCT041 OVC110 18/17 A2978 RMK AO2 RAB20 SLP078 P0001 T01780167
KTUL 250353Z 15005KT 10SM OVC037 18/17 A2979 RMK AO2 SLP083 T01780172
KTUL 250253Z 17005KT 10SM FEW010 BKN140 OVC200 18/17 A2976 RMK AO2 RAE10 SLP072 P0001 60001 T01780167 53002
KTUL 250153Z 18004KT 10SM -RA FEW034 BKN100 OVC150 18/17 A2974 RMK AO2 RAB44 SLP067 P0000 T01830167
KTUL 250053Z 16006KT 10SM SCT034 OVC150 19/17 A2974 RMK AO2 SLP066 T01890167
KTUL 242353Z 18006KT 10SM FEW025 OVC170 19/17 A2975 RMK AO2 SLP070 60041 T01940172 10194 20172 51022
KTUL 242253Z 00000KT 10SM FEW012 FEW025 OVC170 19/17 A2973 RMK AO2 SLP064 T01940167
KTUL 242153Z 18004KT 10SM FEW012 FEW026 OVC130 19/17 A2973 RMK AO2 WSHFT 2126 RAE08 SLP063 P0000 T01940172
KTUL 242140Z 24013G23KT 10SM SCT012 SCT020 BKN028 19/17 A2975 RMK AO2 WSHFT 2126 RAE08 P0000 T01890172
KTUL 242053Z 13015KT 10SM -RA FEW015 FEW080 OVC110 18/17 A2968 RMK AO2 PRESFR SLP047 P0000 60041 T01830167 58040
KTUL 241953Z 15009KT 10SM -RA FEW015 BKN090 OVC110 18/17 A2975 RMK AO2 SLP069 P0003 T01830172
KTUL 241914Z 15008KT 10SM -RA FEW009 SCT055 OVC110 18/18 A2977 RMK AO2 P0002 T01830178
KTUL 241853Z 14011KT 10SM -RA OVC100 18/17 A2979 RMK AO2 SLP082 P0038 T01780167
KTUL 241826Z 13007KT 10SM -RA SCT035 OVC095 17/17 A2978 RMK AO2 P0036 T01720167
KTUL 241820Z 12009KT 3SM R18L/4500VP6000FT -RA BR FEW007 OVC029 17/17 A2977 RMK AO2 P0036 T01720167
KTUL 241804Z 16012KT 1 1/2SM R18L/4500VP6000FT +RA BR FEW007 OVC029 18/17 A2979 RMK AO2 P0019 T01780167
KTUL 241753Z 17013G19KT 1/2SM R18L/2000V4000FT +RA FG FEW005 SCT009 OVC018 18/17 A2980 RMK AO2 SLP088 P0059 60081 T01780172 10183 20161 57003
KTUL 241751Z 17010KT 1/2SM R18L/2000V6000FT +RA FG BKN009 BKN020 OVC090 18/17 A2980 RMK AO2 P0054
KTUL 241728Z 18005KT 1 1/2SM R18L/5500VP6000FT +RA BR BKN009 BKN020 OVC090 18/17 A2981 RMK AO2 P0012 T01830172
KTUL 241719Z 14006G16KT 2 1/2SM R18L/5500VP6000FT +RA BR BKN009 BKN020 OVC090 18/17 A2981 RMK AO2 LTG DSNT SW P0005 T01830172
KTUL 241653Z 13011KT 10SM -RA BKN010 OVC020 18/17 A2981 RMK AO2 SLP091 P0002 T01830172
KTUL 241644Z 14010KT 10SM -RA BKN010 OVC014 18/17 A2982 RMK AO2 P0002 T01830172
KTUL 241553Z 13013KT 10SM -RA OVC006 17/17 A2981 RMK AO2 SLP092 P0001 T01720167
KTUL 241453Z 11012KT 9SM -RA OVC007 17/17 A2983 RMK AO2 SLP096 P0004 60019 T01720167 58019
KTUL 241400Z 11012G20KT 5SM -RA BR BKN007 OVC065 17/16 A2986 RMK AO2 P0000 T01670161
KTUL 241353Z 10012G21KT 6SM -RA BR SCT007 BKN025 OVC065 17/16 A2986 RMK AO2 SLP108 P0009 T01670161
KTUL 241312Z 11013G21KT 3SM RA BR SCT007 BKN022 OVC070 17/16 A2987 RMK AO2 P0005 T01670161
KTUL 241253Z 11012KT 4SM -RA BR BKN007 BKN028 OVC065 17/16 A2988 RMK AO2 SLP115 P0006 T01670161
KTUL 241206Z 09010KT 4SM -RA BR BKN007 BKN060 OVC100 16/16 A2988 RMK AO2 P0002 T01610156
KTUL 241153Z 10010KT 5SM -RA BR SCT009 BKN065 OVC095 16/16 A2988 RMK AO2 SLP116 P0005 60079 70199 T01610156 10161 20150 56020
KTUL 241144Z 10011KT 4SM -RA BR SCT007 BKN075 OVC100 16/16 A2988 RMK AO2 P0004 T01610156
KTUL 241053Z 08009KT 10SM -RA BKN006 OVC100 16/16 A2988 RMK AO2 RAE01B35 SLP116 P0000 T01610156
KTUL 241021Z 09005KT 10SM BKN006 BKN025 OVC140 16/16 A2990 RMK AO2 RAE01 P0000 T01610156
KTUL 241010Z 11007KT 10SM SCT006 BKN021 BKN055 16/16 A2991 RMK AO2 RAE01 P0000 T01610156
KTUL 240959Z 15009KT 10SM -RA FEW006 BKN075 OVC110 16/16 A2992 RMK AO2 P0000 T01610156
KTUL 240953Z 15010KT 10SM -RA FEW060 FEW075 OVC110 16/16 A2991 RMK AO2 PRESRR SLP126 P0010 T01610156
KTUL 240853Z 06009KT 4SM RA BR FEW004 BKN070 OVC090 15/15 A2994 RMK AO2 LTG DSNT ALQDS TSE49 SLP136 FRQ LTGICCCCG DSNT N-E-SE TS DSNT N-E-SE MOV NE P0055 60064 T01500150 58002
KTUL 240831Z 02007KT 5SM -TSRA BR FEW005 SCT011 OVC047CB 15/14 A2995 RMK AO2 LTG DSNT ALQDS FRQ LTGICCCCG N-E-SE TS N-E-SE MOV NE P0047 T01500144